sensor_id;sensor_type;location;lat;lon;timestamp;P1;durP1;ratioP1;P2;durP2;ratioP2
23115;SDS011;11727;52.134;5.052;2023-01-24T00:02:05;16.88;;;7.55;;
23115;SDS011;11727;52.134;5.052;2023-01-24T00:04:31;17.02;;;8.02;;
23115;SDS011;11727;52.134;5.052;2023-01-24T00:06:56;17.02;;;7.80;;
23115;SDS011;11727;52.134;5.052;2023-01-24T00:09:22;17.95;;;8.10;;
23115;SDS011;11727;52.134;5.052;2023-01-24T00:11:48;17.17;;;7.03;;
23115;SDS011;11727;52.134;5.052;2023-01-24T00:14:13;15.70;;;6.85;;
23115;SDS011;11727;52.134;5.052;2023-01-24T00:16:39;18.42;;;7.68;;
23115;SDS011;11727;52.134;5.052;2023-01-24T00:19:04;16.30;;;8.15;;
23115;SDS011;11727;52.134;5.052;2023-01-24T00:21:30;16.38;;;7.25;;
23115;SDS011;11727;52.134;5.052;2023-01-24T00:23:55;18.88;;;7.95;;
23115;SDS011;11727;52.134;5.052;2023-01-24T00:26:22;14.98;;;6.72;;
23115;SDS011;11727;52.134;5.052;2023-01-24T00:31:14;20.02;;;6.72;;
23115;SDS011;11727;52.134;5.052;2023-01-24T00:33:40;14.32;;;6.65;;
23115;SDS011;11727;52.134;5.052;2023-01-24T00:36:06;14.40;;;6.10;;
23115;SDS011;11727;52.134;5.052;2023-01-24T00:38:33;17.65;;;7.53;;
23115;SDS011;11727;52.134;5.052;2023-01-24T00:40:58;14.90;;;6.18;;
23115;SDS011;11727;52.134;5.052;2023-01-24T00:43:24;16.83;;;7.10;;
23115;SDS011;11727;52.134;5.052;2023-01-24T00:45:51;18.33;;;7.28;;
23115;SDS011;11727;52.134;5.052;2023-01-24T00:48:17;15.18;;;6.53;;
23115;SDS011;11727;52.134;5.052;2023-01-24T00:50:42;15.30;;;6.95;;
23115;SDS011;11727;52.134;5.052;2023-01-24T00:53:08;15.68;;;6.95;;
23115;SDS011;11727;52.134;5.052;2023-01-24T00:55:34;17.48;;;7.13;;
23115;SDS011;11727;52.134;5.052;2023-01-24T00:58:04;18.08;;;7.97;;
23115;SDS011;11727;52.134;5.052;2023-01-24T01:00:30;12.90;;;5.80;;
23115;SDS011;11727;52.134;5.052;2023-01-24T01:02:56;13.75;;;6.75;;
23115;SDS011;11727;52.134;5.052;2023-01-24T01:05:21;19.38;;;7.50;;
23115;SDS011;11727;52.134;5.052;2023-01-24T01:07:47;13.35;;;6.10;;
23115;SDS011;11727;52.134;5.052;2023-01-24T01:10:13;15.23;;;6.82;;
23115;SDS011;11727;52.134;5.052;2023-01-24T01:12:38;18.23;;;7.18;;
23115;SDS011;11727;52.134;5.052;2023-01-24T01:15:04;19.05;;;6.53;;
23115;SDS011;11727;52.134;5.052;2023-01-24T01:17:30;16.48;;;7.13;;
23115;SDS011;11727;52.134;5.052;2023-01-24T01:19:56;17.27;;;7.57;;
23115;SDS011;11727;52.134;5.052;2023-01-24T01:22:23;16.08;;;7.45;;
23115;SDS011;11727;52.134;5.052;2023-01-24T01:24:49;19.13;;;7.85;;
23115;SDS011;11727;52.134;5.052;2023-01-24T01:27:15;18.08;;;8.00;;
23115;SDS011;11727;52.134;5.052;2023-01-24T01:29:40;15.15;;;7.43;;
23115;SDS011;11727;52.134;5.052;2023-01-24T01:32:06;16.98;;;6.85;;
23115;SDS011;11727;52.134;5.052;2023-01-24T01:34:31;19.75;;;8.63;;
23115;SDS011;11727;52.134;5.052;2023-01-24T01:36:57;16.15;;;7.88;;
23115;SDS011;11727;52.134;5.052;2023-01-24T01:39:23;16.15;;;7.97;;
23115;SDS011;11727;52.134;5.052;2023-01-24T01:41:48;17.10;;;7.47;;
23115;SDS011;11727;52.134;5.052;2023-01-24T01:44:24;16.00;;;7.78;;
23115;SDS011;11727;52.134;5.052;2023-01-24T01:47:06;17.83;;;7.70;;
23115;SDS011;11727;52.134;5.052;2023-01-24T01:50:03;20.75;;;7.70;;
23115;SDS011;11727;52.134;5.052;2023-01-24T01:52:31;17.80;;;7.82;;
23115;SDS011;11727;52.134;5.052;2023-01-24T01:55:03;16.70;;;6.88;;
23115;SDS011;11727;52.134;5.052;2023-01-24T01:57:33;15.38;;;7.10;;
23115;SDS011;11727;52.134;5.052;2023-01-24T02:00:11;20.90;;;9.52;;
23115;SDS011;11727;52.134;5.052;2023-01-24T02:02:40;26.20;;;8.27;;
23115;SDS011;11727;52.134;5.052;2023-01-24T02:05:10;19.85;;;7.47;;
23115;SDS011;11727;52.134;5.052;2023-01-24T02:10:17;17.05;;;7.53;;
23115;SDS011;11727;52.134;5.052;2023-01-24T02:12:45;19.98;;;9.23;;
23115;SDS011;11727;52.134;5.052;2023-01-24T02:15:13;17.10;;;7.13;;
23115;SDS011;11727;52.134;5.052;2023-01-24T02:18:00;19.25;;;7.93;;
23115;SDS011;11727;52.134;5.052;2023-01-24T02:20:44;21.25;;;7.97;;
23115;SDS011;11727;52.134;5.052;2023-01-24T02:25:51;24.23;;;9.98;;
23115;SDS011;11727;52.134;5.052;2023-01-24T02:28:24;19.10;;;8.95;;
23115;SDS011;11727;52.134;5.052;2023-01-24T02:30:51;18.23;;;8.23;;
23115;SDS011;11727;52.134;5.052;2023-01-24T02:33:20;18.50;;;8.02;;
23115;SDS011;11727;52.134;5.052;2023-01-24T02:35:46;17.08;;;7.57;;
23115;SDS011;11727;52.134;5.052;2023-01-24T02:38:19;18.85;;;7.97;;
23115;SDS011;11727;52.134;5.052;2023-01-24T02:40:54;18.67;;;8.10;;
23115;SDS011;11727;52.134;5.052;2023-01-24T02:45:58;18.13;;;8.40;;
23115;SDS011;11727;52.134;5.052;2023-01-24T02:48:23;22.58;;;9.48;;
23115;SDS011;11727;52.134;5.052;2023-01-24T02:50:49;19.50;;;9.02;;
23115;SDS011;11727;52.134;5.052;2023-01-24T02:53:33;17.13;;;8.27;;
23115;SDS011;11727;52.134;5.052;2023-01-24T02:55:59;18.73;;;8.35;;
23115;SDS011;11727;52.134;5.052;2023-01-24T02:58:48;22.17;;;9.05;;
23115;SDS011;11727;52.134;5.052;2023-01-24T03:01:14;20.70;;;8.40;;
23115;SDS011;11727;52.134;5.052;2023-01-24T03:03:41;21.23;;;8.32;;
23115;SDS011;11727;52.134;5.052;2023-01-24T03:06:08;19.58;;;8.63;;
23115;SDS011;11727;52.134;5.052;2023-01-24T03:08:34;15.55;;;6.28;;
23115;SDS011;11727;52.134;5.052;2023-01-24T03:11:00;16.30;;;7.20;;
23115;SDS011;11727;52.134;5.052;2023-01-24T03:13:26;20.45;;;7.18;;
23115;SDS011;11727;52.134;5.052;2023-01-24T03:16:11;15.73;;;6.93;;
23115;SDS011;11727;52.134;5.052;2023-01-24T03:18:56;16.52;;;7.38;;
23115;SDS011;11727;52.134;5.052;2023-01-24T03:21:40;17.38;;;6.90;;
23115;SDS011;11727;52.134;5.052;2023-01-24T03:24:25;12.82;;;6.45;;
23115;SDS011;11727;52.134;5.052;2023-01-24T03:27:09;15.55;;;7.07;;
23115;SDS011;11727;52.134;5.052;2023-01-24T03:29:53;18.25;;;7.72;;
23115;SDS011;11727;52.134;5.052;2023-01-24T03:32:37;17.10;;;7.35;;
23115;SDS011;11727;52.134;5.052;2023-01-24T03:35:22;15.80;;;7.65;;
23115;SDS011;11727;52.134;5.052;2023-01-24T03:37:48;16.63;;;7.78;;
23115;SDS011;11727;52.134;5.052;2023-01-24T03:40:33;15.50;;;7.47;;
23115;SDS011;11727;52.134;5.052;2023-01-24T03:42:59;20.73;;;7.20;;
23115;SDS011;11727;52.134;5.052;2023-01-24T03:45:26;19.80;;;7.97;;
23115;SDS011;11727;52.134;5.052;2023-01-24T03:47:54;15.98;;;7.45;;
23115;SDS011;11727;52.134;5.052;2023-01-24T03:50:26;20.13;;;7.53;;
23115;SDS011;11727;52.134;5.052;2023-01-24T03:53:10;19.20;;;7.57;;
23115;SDS011;11727;52.134;5.052;2023-01-24T03:55:37;18.98;;;7.97;;
23115;SDS011;11727;52.134;5.052;2023-01-24T03:58:03;16.83;;;7.75;;
23115;SDS011;11727;52.134;5.052;2023-01-24T04:00:30;23.38;;;8.23;;
23115;SDS011;11727;52.134;5.052;2023-01-24T04:02:56;15.60;;;7.18;;
23115;SDS011;11727;52.134;5.052;2023-01-24T04:05:22;18.90;;;6.95;;
23115;SDS011;11727;52.134;5.052;2023-01-24T04:07:48;17.08;;;7.05;;
23115;SDS011;11727;52.134;5.052;2023-01-24T04:10:14;16.95;;;7.13;;
23115;SDS011;11727;52.134;5.052;2023-01-24T04:12:40;16.17;;;7.80;;
23115;SDS011;11727;52.134;5.052;2023-01-24T04:15:06;18.27;;;7.45;;
23115;SDS011;11727;52.134;5.052;2023-01-24T04:17:33;16.75;;;7.53;;
23115;SDS011;11727;52.134;5.052;2023-01-24T04:19:59;19.08;;;7.93;;
23115;SDS011;11727;52.134;5.052;2023-01-24T04:22:25;15.90;;;6.40;;
23115;SDS011;11727;52.134;5.052;2023-01-24T04:24:50;18.23;;;7.80;;
23115;SDS011;11727;52.134;5.052;2023-01-24T04:27:16;16.08;;;7.78;;
23115;SDS011;11727;52.134;5.052;2023-01-24T04:29:42;21.85;;;8.20;;
23115;SDS011;11727;52.134;5.052;2023-01-24T04:32:07;17.48;;;7.82;;
23115;SDS011;11727;52.134;5.052;2023-01-24T04:34:33;20.20;;;8.30;;
23115;SDS011;11727;52.134;5.052;2023-01-24T04:36:59;18.27;;;7.85;;
23115;SDS011;11727;52.134;5.052;2023-01-24T04:39:24;20.00;;;8.85;;
23115;SDS011;11727;52.134;5.052;2023-01-24T04:41:50;16.90;;;7.07;;
23115;SDS011;11727;52.134;5.052;2023-01-24T04:44:16;17.50;;;8.35;;
23115;SDS011;11727;52.134;5.052;2023-01-24T04:46:41;19.38;;;7.63;;
23115;SDS011;11727;52.134;5.052;2023-01-24T04:49:07;22.83;;;9.30;;
23115;SDS011;11727;52.134;5.052;2023-01-24T04:51:32;23.10;;;7.25;;
23115;SDS011;11727;52.134;5.052;2023-01-24T04:53:58;22.13;;;8.32;;
23115;SDS011;11727;52.134;5.052;2023-01-24T04:56:24;19.25;;;7.72;;
23115;SDS011;11727;52.134;5.052;2023-01-24T04:58:49;19.77;;;8.07;;
23115;SDS011;11727;52.134;5.052;2023-01-24T05:01:15;18.88;;;8.25;;
23115;SDS011;11727;52.134;5.052;2023-01-24T05:03:40;17.13;;;7.40;;
23115;SDS011;11727;52.134;5.052;2023-01-24T05:06:06;16.77;;;6.80;;
23115;SDS011;11727;52.134;5.052;2023-01-24T05:08:31;17.42;;;6.97;;
23115;SDS011;11727;52.134;5.052;2023-01-24T05:11:01;18.88;;;7.57;;
23115;SDS011;11727;52.134;5.052;2023-01-24T05:13:27;14.45;;;7.22;;
23115;SDS011;11727;52.134;5.052;2023-01-24T05:15:53;18.10;;;8.00;;
23115;SDS011;11727;52.134;5.052;2023-01-24T05:18:18;16.20;;;6.57;;
23115;SDS011;11727;52.134;5.052;2023-01-24T05:20:45;15.73;;;7.10;;
23115;SDS011;11727;52.134;5.052;2023-01-24T05:23:11;17.20;;;7.70;;
23115;SDS011;11727;52.134;5.052;2023-01-24T05:25:36;24.50;;;8.02;;
23115;SDS011;11727;52.134;5.052;2023-01-24T05:28:02;16.48;;;7.75;;
23115;SDS011;11727;52.134;5.052;2023-01-24T05:30:28;17.45;;;6.70;;
23115;SDS011;11727;52.134;5.052;2023-01-24T05:32:57;18.83;;;7.78;;
23115;SDS011;11727;52.134;5.052;2023-01-24T05:35:23;19.23;;;7.88;;
23115;SDS011;11727;52.134;5.052;2023-01-24T05:37:49;20.95;;;9.10;;
23115;SDS011;11727;52.134;5.052;2023-01-24T05:40:15;17.00;;;7.13;;
23115;SDS011;11727;52.134;5.052;2023-01-24T05:42:42;14.23;;;7.07;;
23115;SDS011;11727;52.134;5.052;2023-01-24T05:45:08;17.73;;;7.00;;
23115;SDS011;11727;52.134;5.052;2023-01-24T05:47:35;18.30;;;8.10;;
23115;SDS011;11727;52.134;5.052;2023-01-24T05:50:00;19.52;;;8.70;;
23115;SDS011;11727;52.134;5.052;2023-01-24T05:52:26;17.42;;;8.02;;
23115;SDS011;11727;52.134;5.052;2023-01-24T05:54:52;20.88;;;8.43;;
23115;SDS011;11727;52.134;5.052;2023-01-24T05:57:18;17.35;;;7.57;;
23115;SDS011;11727;52.134;5.052;2023-01-24T05:59:44;18.50;;;8.48;;
23115;SDS011;11727;52.134;5.052;2023-01-24T06:02:09;20.42;;;7.75;;
23115;SDS011;11727;52.134;5.052;2023-01-24T06:04:35;20.48;;;7.93;;
23115;SDS011;11727;52.134;5.052;2023-01-24T06:07:00;21.38;;;8.77;;
23115;SDS011;11727;52.134;5.052;2023-01-24T06:09:26;20.48;;;8.20;;
23115;SDS011;11727;52.134;5.052;2023-01-24T06:11:52;17.20;;;8.30;;
23115;SDS011;11727;52.134;5.052;2023-01-24T06:14:18;24.55;;;9.05;;
23115;SDS011;11727;52.134;5.052;2023-01-24T06:16:44;23.55;;;8.15;;
23115;SDS011;11727;52.134;5.052;2023-01-24T06:19:11;19.88;;;7.45;;
23115;SDS011;11727;52.134;5.052;2023-01-24T06:21:47;19.60;;;7.57;;
23115;SDS011;11727;52.134;5.052;2023-01-24T06:24:22;24.35;;;9.98;;
23115;SDS011;11727;52.134;5.052;2023-01-24T06:26:50;19.30;;;8.77;;
23115;SDS011;11727;52.134;5.052;2023-01-24T06:29:17;21.48;;;9.73;;
23115;SDS011;11727;52.134;5.052;2023-01-24T06:34:40;25.92;;;9.80;;
23115;SDS011;11727;52.134;5.052;2023-01-24T06:37:21;26.45;;;9.88;;
23115;SDS011;11727;52.134;5.052;2023-01-24T06:39:50;21.45;;;9.35;;
23115;SDS011;11727;52.134;5.052;2023-01-24T06:42:18;22.55;;;9.18;;
23115;SDS011;11727;52.134;5.052;2023-01-24T06:44:44;22.38;;;9.23;;
23115;SDS011;11727;52.134;5.052;2023-01-24T06:47:10;24.63;;;9.52;;
23115;SDS011;11727;52.134;5.052;2023-01-24T06:49:37;28.88;;;10.07;;
23115;SDS011;11727;52.134;5.052;2023-01-24T06:52:03;25.05;;;9.43;;
23115;SDS011;11727;52.134;5.052;2023-01-24T06:54:29;19.02;;;9.15;;
23115;SDS011;11727;52.134;5.052;2023-01-24T06:56:55;22.73;;;9.20;;
23115;SDS011;11727;52.134;5.052;2023-01-24T06:59:21;23.08;;;9.13;;
23115;SDS011;11727;52.134;5.052;2023-01-24T07:01:48;22.17;;;9.88;;
23115;SDS011;11727;52.134;5.052;2023-01-24T07:04:14;31.08;;;9.85;;
23115;SDS011;11727;52.134;5.052;2023-01-24T07:06:40;23.77;;;9.60;;
23115;SDS011;11727;52.134;5.052;2023-01-24T07:09:06;19.45;;;8.50;;
23115;SDS011;11727;52.134;5.052;2023-01-24T07:11:32;26.58;;;10.23;;
23115;SDS011;11727;52.134;5.052;2023-01-24T07:13:57;22.83;;;8.93;;
23115;SDS011;11727;52.134;5.052;2023-01-24T07:16:23;23.65;;;9.07;;
23115;SDS011;11727;52.134;5.052;2023-01-24T07:18:49;21.40;;;10.07;;
23115;SDS011;11727;52.134;5.052;2023-01-24T07:21:14;21.08;;;9.65;;
23115;SDS011;11727;52.134;5.052;2023-01-24T07:23:44;22.00;;;8.90;;
23115;SDS011;11727;52.134;5.052;2023-01-24T07:26:11;22.52;;;9.70;;
23115;SDS011;11727;52.134;5.052;2023-01-24T07:28:37;26.17;;;9.18;;
23115;SDS011;11727;52.134;5.052;2023-01-24T07:31:03;23.63;;;8.52;;
23115;SDS011;11727;52.134;5.052;2023-01-24T07:33:29;20.65;;;9.38;;
23115;SDS011;11727;52.134;5.052;2023-01-24T07:35:57;24.80;;;9.93;;
23115;SDS011;11727;52.134;5.052;2023-01-24T07:38:23;28.70;;;10.10;;
23115;SDS011;11727;52.134;5.052;2023-01-24T07:40:49;27.10;;;10.18;;
23115;SDS011;11727;52.134;5.052;2023-01-24T07:43:15;23.92;;;10.35;;
23115;SDS011;11727;52.134;5.052;2023-01-24T07:45:44;26.85;;;10.18;;
23115;SDS011;11727;52.134;5.052;2023-01-24T07:48:10;23.20;;;9.45;;
23115;SDS011;11727;52.134;5.052;2023-01-24T07:50:36;24.92;;;10.00;;
23115;SDS011;11727;52.134;5.052;2023-01-24T07:53:01;24.52;;;9.63;;
23115;SDS011;11727;52.134;5.052;2023-01-24T07:55:27;23.55;;;9.88;;
23115;SDS011;11727;52.134;5.052;2023-01-24T07:57:57;19.80;;;9.18;;
23115;SDS011;11727;52.134;5.052;2023-01-24T08:00:24;21.95;;;8.68;;
23115;SDS011;11727;52.134;5.052;2023-01-24T08:02:49;25.98;;;10.77;;
23115;SDS011;11727;52.134;5.052;2023-01-24T08:05:15;19.98;;;8.43;;
23115;SDS011;11727;52.134;5.052;2023-01-24T08:07:41;21.90;;;10.13;;
23115;SDS011;11727;52.134;5.052;2023-01-24T08:10:06;24.90;;;10.57;;
23115;SDS011;11727;52.134;5.052;2023-01-24T08:12:32;24.08;;;9.65;;
23115;SDS011;11727;52.134;5.052;2023-01-24T08:14:58;20.40;;;9.02;;
23115;SDS011;11727;52.134;5.052;2023-01-24T08:17:23;26.02;;;9.50;;
23115;SDS011;11727;52.134;5.052;2023-01-24T08:19:49;19.25;;;8.60;;
23115;SDS011;11727;52.134;5.052;2023-01-24T08:22:15;24.80;;;8.00;;
23115;SDS011;11727;52.134;5.052;2023-01-24T08:24:40;23.17;;;9.00;;
23115;SDS011;11727;52.134;5.052;2023-01-24T08:27:06;19.70;;;8.85;;
23115;SDS011;11727;52.134;5.052;2023-01-24T08:29:32;19.73;;;9.02;;
23115;SDS011;11727;52.134;5.052;2023-01-24T08:31:57;24.63;;;9.05;;
23115;SDS011;11727;52.134;5.052;2023-01-24T08:34:24;25.30;;;11.02;;
23115;SDS011;11727;52.134;5.052;2023-01-24T08:36:50;28.83;;;9.70;;
23115;SDS011;11727;52.134;5.052;2023-01-24T08:39:15;24.30;;;9.90;;
23115;SDS011;11727;52.134;5.052;2023-01-24T08:41:41;20.27;;;7.57;;
23115;SDS011;11727;52.134;5.052;2023-01-24T08:44:11;23.88;;;9.82;;
23115;SDS011;11727;52.134;5.052;2023-01-24T08:46:40;17.88;;;8.15;;
23115;SDS011;11727;52.134;5.052;2023-01-24T08:49:07;14.70;;;7.40;;
23115;SDS011;11727;52.134;5.052;2023-01-24T08:51:36;24.90;;;9.32;;
23115;SDS011;11727;52.134;5.052;2023-01-24T08:56:29;20.65;;;8.75;;
23115;SDS011;11727;52.134;5.052;2023-01-24T08:58:55;22.25;;;9.43;;
23115;SDS011;11727;52.134;5.052;2023-01-24T09:01:22;20.27;;;9.38;;
23115;SDS011;11727;52.134;5.052;2023-01-24T09:03:47;20.83;;;9.18;;
23115;SDS011;11727;52.134;5.052;2023-01-24T09:06:14;23.88;;;9.73;;
23115;SDS011;11727;52.134;5.052;2023-01-24T09:08:39;21.83;;;8.90;;
23115;SDS011;11727;52.134;5.052;2023-01-24T09:11:05;20.23;;;8.95;;
23115;SDS011;11727;52.134;5.052;2023-01-24T09:13:31;26.33;;;9.80;;
23115;SDS011;11727;52.134;5.052;2023-01-24T09:15:59;22.65;;;9.95;;
23115;SDS011;11727;52.134;5.052;2023-01-24T09:18:25;21.92;;;8.95;;
23115;SDS011;11727;52.134;5.052;2023-01-24T09:20:50;25.00;;;9.60;;
23115;SDS011;11727;52.134;5.052;2023-01-24T09:23:17;25.23;;;9.32;;
23115;SDS011;11727;52.134;5.052;2023-01-24T09:25:49;18.93;;;8.70;;
23115;SDS011;11727;52.134;5.052;2023-01-24T09:28:16;25.83;;;9.40;;
23115;SDS011;11727;52.134;5.052;2023-01-24T09:30:45;20.45;;;8.98;;
23115;SDS011;11727;52.134;5.052;2023-01-24T09:33:11;25.45;;;9.27;;
23115;SDS011;11727;52.134;5.052;2023-01-24T09:35:37;21.92;;;8.63;;
23115;SDS011;11727;52.134;5.052;2023-01-24T09:38:03;19.00;;;8.93;;
23115;SDS011;11727;52.134;5.052;2023-01-24T09:40:32;21.00;;;9.05;;
23115;SDS011;11727;52.134;5.052;2023-01-24T09:46:10;21.45;;;9.73;;
23115;SDS011;11727;52.134;5.052;2023-01-24T09:48:46;22.80;;;9.25;;
23115;SDS011;11727;52.134;5.052;2023-01-24T09:51:21;16.35;;;8.10;;
23115;SDS011;11727;52.134;5.052;2023-01-24T09:53:51;23.98;;;9.32;;
23115;SDS011;11727;52.134;5.052;2023-01-24T09:56:21;22.45;;;8.65;;
23115;SDS011;11727;52.134;5.052;2023-01-24T09:58:58;22.88;;;8.70;;
23115;SDS011;11727;52.134;5.052;2023-01-24T10:01:45;17.85;;;7.80;;
23115;SDS011;11727;52.134;5.052;2023-01-24T10:04:13;22.42;;;8.85;;
23115;SDS011;11727;52.134;5.052;2023-01-24T10:10:02;20.67;;;9.38;;
23115;SDS011;11727;52.134;5.052;2023-01-24T10:23:46;21.10;;;8.90;;
23115;SDS011;11727;52.134;5.052;2023-01-24T10:26:17;22.02;;;8.65;;
23115;SDS011;11727;52.134;5.052;2023-01-24T10:28:46;19.77;;;8.68;;
23115;SDS011;11727;52.134;5.052;2023-01-24T10:31:18;17.48;;;6.90;;
23115;SDS011;11727;52.134;5.052;2023-01-24T10:33:55;19.58;;;8.10;;
23115;SDS011;11727;52.134;5.052;2023-01-24T10:36:44;18.45;;;8.38;;
23115;SDS011;11727;52.134;5.052;2023-01-24T10:39:16;26.38;;;9.20;;
23115;SDS011;11727;52.134;5.052;2023-01-24T10:41:41;17.05;;;7.75;;
23115;SDS011;11727;52.134;5.052;2023-01-24T10:44:14;17.83;;;7.90;;
23115;SDS011;11727;52.134;5.052;2023-01-24T10:47:09;19.90;;;8.25;;
23115;SDS011;11727;52.134;5.052;2023-01-24T10:49:44;20.75;;;8.48;;
23115;SDS011;11727;52.134;5.052;2023-01-24T10:52:21;20.15;;;8.00;;
23115;SDS011;11727;52.134;5.052;2023-01-24T10:57:39;22.55;;;9.00;;
23115;SDS011;11727;52.134;5.052;2023-01-24T11:00:36;20.38;;;7.97;;
23115;SDS011;11727;52.134;5.052;2023-01-24T11:03:19;22.80;;;8.90;;
23115;SDS011;11727;52.134;5.052;2023-01-24T11:05:53;18.58;;;8.27;;
23115;SDS011;11727;52.134;5.052;2023-01-24T11:08:21;18.75;;;8.02;;
23115;SDS011;11727;52.134;5.052;2023-01-24T11:10:52;21.35;;;7.88;;
23115;SDS011;11727;52.134;5.052;2023-01-24T11:13:33;20.40;;;7.47;;
23115;SDS011;11727;52.134;5.052;2023-01-24T11:16:02;19.02;;;9.05;;
23115;SDS011;11727;52.134;5.052;2023-01-24T11:18:45;20.75;;;9.00;;
23115;SDS011;11727;52.134;5.052;2023-01-24T11:21:15;19.33;;;8.82;;
23115;SDS011;11727;52.134;5.052;2023-01-24T11:23:42;22.35;;;8.05;;
23115;SDS011;11727;52.134;5.052;2023-01-24T11:26:25;20.55;;;7.18;;
23115;SDS011;11727;52.134;5.052;2023-01-24T11:29:03;18.73;;;7.70;;
23115;SDS011;11727;52.134;5.052;2023-01-24T11:31:42;21.73;;;8.25;;
23115;SDS011;11727;52.134;5.052;2023-01-24T11:47:38;19.45;;;7.32;;
23115;SDS011;11727;52.134;5.052;2023-01-24T11:58:50;19.75;;;8.23;;
23115;SDS011;11727;52.134;5.052;2023-01-24T12:09:31;16.83;;;8.02;;
23115;SDS011;11727;52.134;5.052;2023-01-24T12:14:48;20.00;;;7.47;;
23115;SDS011;11727;52.134;5.052;2023-01-24T12:17:28;16.52;;;6.93;;
23115;SDS011;11727;52.134;5.052;2023-01-24T12:20:23;21.77;;;6.93;;
23115;SDS011;11727;52.134;5.052;2023-01-24T12:22:54;17.42;;;7.03;;
23115;SDS011;11727;52.134;5.052;2023-01-24T12:25:26;19.30;;;7.43;;
23115;SDS011;11727;52.134;5.052;2023-01-24T12:27:58;19.27;;;8.20;;
23115;SDS011;11727;52.134;5.052;2023-01-24T12:36:09;17.70;;;6.38;;
23115;SDS011;11727;52.134;5.052;2023-01-24T12:38:57;17.15;;;6.88;;
23115;SDS011;11727;52.134;5.052;2023-01-24T12:41:29;19.55;;;6.90;;
23115;SDS011;11727;52.134;5.052;2023-01-24T12:44:13;16.00;;;6.90;;
23115;SDS011;11727;52.134;5.052;2023-01-24T12:52:16;21.38;;;7.80;;
23115;SDS011;11727;52.134;5.052;2023-01-24T12:59:57;16.67;;;7.00;;
23115;SDS011;11727;52.134;5.052;2023-01-24T13:02:27;18.10;;;7.97;;
23115;SDS011;11727;52.134;5.052;2023-01-24T13:13:23;18.85;;;7.30;;
23115;SDS011;11727;52.134;5.052;2023-01-24T13:15:59;25.73;;;7.55;;
23115;SDS011;11727;52.134;5.052;2023-01-24T13:21:22;16.88;;;7.07;;
23115;SDS011;11727;52.134;5.052;2023-01-24T13:32:42;15.15;;;6.47;;
23115;SDS011;11727;52.134;5.052;2023-01-24T13:35:13;15.15;;;7.07;;
23115;SDS011;11727;52.134;5.052;2023-01-24T13:37:47;21.33;;;7.57;;
23115;SDS011;11727;52.134;5.052;2023-01-24T13:42:48;19.35;;;7.38;;
23115;SDS011;11727;52.134;5.052;2023-01-24T13:47:50;18.33;;;7.60;;
23115;SDS011;11727;52.134;5.052;2023-01-24T13:50:21;15.60;;;6.20;;
23115;SDS011;11727;52.134;5.052;2023-01-24T13:52:51;19.08;;;7.40;;
23115;SDS011;11727;52.134;5.052;2023-01-24T13:57:45;16.27;;;7.82;;
23115;SDS011;11727;52.134;5.052;2023-01-24T14:02:40;14.63;;;6.88;;
23115;SDS011;11727;52.134;5.052;2023-01-24T14:11:09;17.73;;;7.32;;
23115;SDS011;11727;52.134;5.052;2023-01-24T14:13:42;17.23;;;7.55;;
23115;SDS011;11727;52.134;5.052;2023-01-24T14:16:12;18.65;;;8.10;;
23115;SDS011;11727;52.134;5.052;2023-01-24T14:18:53;22.85;;;8.20;;
23115;SDS011;11727;52.134;5.052;2023-01-24T14:26:51;20.80;;;8.13;;
23115;SDS011;11727;52.134;5.052;2023-01-24T14:29:18;16.75;;;7.22;;
23115;SDS011;11727;52.134;5.052;2023-01-24T14:31:50;20.65;;;8.13;;
23115;SDS011;11727;52.134;5.052;2023-01-24T14:37:09;17.15;;;7.32;;
23115;SDS011;11727;52.134;5.052;2023-01-24T14:39:36;19.60;;;8.23;;
23115;SDS011;11727;52.134;5.052;2023-01-24T14:42:03;16.35;;;7.10;;
23115;SDS011;11727;52.134;5.052;2023-01-24T14:44:35;15.20;;;7.03;;
23115;SDS011;11727;52.134;5.052;2023-01-24T14:47:04;19.80;;;8.57;;
23115;SDS011;11727;52.134;5.052;2023-01-24T14:49:34;20.17;;;8.18;;
23115;SDS011;11727;52.134;5.052;2023-01-24T14:52:17;16.73;;;7.40;;
23115;SDS011;11727;52.134;5.052;2023-01-24T14:54:46;17.00;;;7.65;;
23115;SDS011;11727;52.134;5.052;2023-01-24T14:57:28;12.55;;;6.70;;
23115;SDS011;11727;52.134;5.052;2023-01-24T15:00:06;18.48;;;7.45;;
23115;SDS011;11727;52.134;5.052;2023-01-24T15:05:21;14.63;;;6.78;;
23115;SDS011;11727;52.134;5.052;2023-01-24T15:08:04;16.75;;;7.38;;
23115;SDS011;11727;52.134;5.052;2023-01-24T15:10:38;20.05;;;7.22;;
23115;SDS011;11727;52.134;5.052;2023-01-24T15:13:10;16.05;;;7.10;;
23115;SDS011;11727;52.134;5.052;2023-01-24T15:15:44;16.13;;;7.60;;
23115;SDS011;11727;52.134;5.052;2023-01-24T15:19:12;18.00;;;7.57;;
23115;SDS011;11727;52.134;5.052;2023-01-24T15:23:52;20.33;;;7.85;;
23115;SDS011;11727;52.134;5.052;2023-01-24T15:28:57;23.45;;;8.65;;
23115;SDS011;11727;52.134;5.052;2023-01-24T15:31:27;16.13;;;6.57;;
23115;SDS011;11727;52.134;5.052;2023-01-24T15:33:55;18.70;;;7.22;;
23115;SDS011;11727;52.134;5.052;2023-01-24T15:38:53;23.90;;;8.95;;
23115;SDS011;11727;52.134;5.052;2023-01-24T15:41:27;17.55;;;8.10;;
23115;SDS011;11727;52.134;5.052;2023-01-24T15:44:18;21.05;;;8.23;;
23115;SDS011;11727;52.134;5.052;2023-01-24T15:46:44;17.13;;;7.88;;
23115;SDS011;11727;52.134;5.052;2023-01-24T15:49:36;22.10;;;9.23;;
23115;SDS011;11727;52.134;5.052;2023-01-24T15:54:32;18.95;;;7.82;;
23115;SDS011;11727;52.134;5.052;2023-01-24T15:57:03;30.10;;;9.00;;
23115;SDS011;11727;52.134;5.052;2023-01-24T15:59:31;20.25;;;9.23;;
23115;SDS011;11727;52.134;5.052;2023-01-24T16:01:59;21.08;;;8.27;;
23115;SDS011;11727;52.134;5.052;2023-01-24T16:04:25;18.40;;;8.40;;
23115;SDS011;11727;52.134;5.052;2023-01-24T16:06:51;19.75;;;8.07;;
23115;SDS011;11727;52.134;5.052;2023-01-24T16:09:17;16.92;;;8.02;;
23115;SDS011;11727;52.134;5.052;2023-01-24T16:11:43;20.48;;;8.60;;
23115;SDS011;11727;52.134;5.052;2023-01-24T16:14:13;19.52;;;8.80;;
23115;SDS011;11727;52.134;5.052;2023-01-24T16:16:42;17.80;;;8.05;;
23115;SDS011;11727;52.134;5.052;2023-01-24T16:19:19;25.70;;;9.18;;
23115;SDS011;11727;52.134;5.052;2023-01-24T16:21:47;23.75;;;9.00;;
23115;SDS011;11727;52.134;5.052;2023-01-24T16:24:13;23.77;;;8.80;;
23115;SDS011;11727;52.134;5.052;2023-01-24T16:26:40;23.92;;;7.78;;
23115;SDS011;11727;52.134;5.052;2023-01-24T16:29:11;23.33;;;8.82;;
23115;SDS011;11727;52.134;5.052;2023-01-24T16:31:47;25.08;;;10.20;;
23115;SDS011;11727;52.134;5.052;2023-01-24T16:34:13;23.58;;;9.23;;
23115;SDS011;11727;52.134;5.052;2023-01-24T16:36:39;17.13;;;7.60;;
23115;SDS011;11727;52.134;5.052;2023-01-24T16:39:05;24.10;;;9.98;;
23115;SDS011;11727;52.134;5.052;2023-01-24T16:41:31;21.83;;;9.23;;
23115;SDS011;11727;52.134;5.052;2023-01-24T16:43:57;22.67;;;9.07;;
23115;SDS011;11727;52.134;5.052;2023-01-24T16:46:23;23.75;;;9.73;;
23115;SDS011;11727;52.134;5.052;2023-01-24T16:48:49;20.65;;;8.38;;
23115;SDS011;11727;52.134;5.052;2023-01-24T16:51:15;20.38;;;9.20;;
23115;SDS011;11727;52.134;5.052;2023-01-24T16:53:41;17.50;;;9.07;;
23115;SDS011;11727;52.134;5.052;2023-01-24T16:56:07;20.77;;;9.10;;
23115;SDS011;11727;52.134;5.052;2023-01-24T16:58:33;20.33;;;8.95;;
23115;SDS011;11727;52.134;5.052;2023-01-24T17:01:00;18.92;;;8.73;;
23115;SDS011;11727;52.134;5.052;2023-01-24T17:03:30;19.50;;;8.07;;
23115;SDS011;11727;52.134;5.052;2023-01-24T17:05:56;19.17;;;8.85;;
23115;SDS011;11727;52.134;5.052;2023-01-24T17:08:21;25.00;;;8.10;;
23115;SDS011;11727;52.134;5.052;2023-01-24T17:10:47;18.67;;;7.43;;